Terminal Aerodrome Forecast
Issued by NWS Cleveland, OH

Home | Current Version | Previous Version | Text Only | Print | Product List | Glossary Off
Versions: 1 2 3 4 5 6 7 8 9 10 11 12 13 14 15 16 17

000
FTUS41 KCLE 271734
TAFYNG
TAF
KYNG 271734Z 2718/2818 18014G24KT P6SM SCT050 BKN150
      TEMPO 2720/2723 5SM -TSRA BKN030CB OVC060
     FM272300 23015G25KT P6SM BKN040
     FM280200 24010KT P6SM BKN035
     FM281500 18006KT P6SM BKN035=

USA.gov is the U.S. government's official web portal to all federal, state and local government web resources and services.